createdAt,value
2018-11-13T00:00:36.803Z,118.77
2018-11-13T00:03:10.363Z,98.67
2018-11-13T00:20:40.657Z,165.60
2018-11-13T00:23:26.686Z,92.53
2018-11-13T00:37:54.324Z,89.23
2018-11-13T00:40:33.051Z,81.40
2018-11-13T00:43:05.852Z,97.97
2018-11-13T00:45:50.622Z,80.87
2018-11-13T00:51:24.296Z,71.40
2018-11-13T00:53:53.406Z,126.73
2018-11-13T00:56:24.280Z,89.47
2018-11-13T00:58:55.456Z,74.37
2018-11-13T01:01:26.844Z,58.87
2018-11-13T01:03:56.354Z,83.83
2018-11-13T01:06:31.635Z,104.53
2018-11-13T01:09:00.918Z,65.53
2018-11-13T01:11:31.284Z,86.10
2018-11-13T01:14:00.441Z,114.00
2018-11-13T01:16:34.071Z,166.43
2018-11-13T01:19:03.206Z,130.27
2018-11-13T01:21:32.442Z,124.47
2018-11-13T01:27:05.677Z,67.27
2018-11-13T01:29:35.482Z,68.63
2018-11-13T01:32:04.881Z,72.40
2018-11-13T01:34:34.324Z,75.43
2018-11-13T01:37:07.821Z,63.33
2018-11-13T01:39:39.120Z,70.53
2018-11-13T01:42:08.791Z,72.83
2018-11-13T01:44:37.930Z,64.03
2018-11-13T01:47:09.137Z,64.20
2018-11-13T01:49:39.818Z,91.77
2018-11-13T01:52:08.596Z,74.93
2018-11-13T01:54:38.643Z,105.87
2018-11-13T01:57:08.704Z,96.87
2018-11-13T01:59:38.797Z,84.50
2018-11-13T02:02:09.421Z,113.83
2018-11-13T02:04:44.714Z,58.10
2018-11-13T02:07:18.166Z,63.00
2018-11-13T02:09:47.698Z,58.03
2018-11-13T02:12:19.574Z,85.80
2018-11-13T02:14:49.101Z,64.57
2018-11-13T02:17:18.586Z,60.90
2018-11-13T02:19:48.395Z,53.10
2018-11-13T02:22:19.396Z,65.57
2018-11-13T02:24:49.745Z,60.80
2018-11-13T02:27:19.630Z,65.33
2018-11-13T02:29:50.310Z,72.53
2018-11-13T02:32:21.270Z,56.53
2018-11-13T02:34:51.933Z,62.20
2018-11-13T02:37:21.368Z,67.47
2018-11-13T02:39:51.991Z,84.90
2018-11-13T02:42:26.015Z,59.63
2018-11-13T02:44:56.491Z,69.03
2018-11-13T02:47:28.340Z,68.53
2018-11-13T02:49:58.244Z,59.37
2018-11-13T02:52:32.700Z,65.70
2018-11-13T02:55:01.928Z,59.83
2018-11-13T02:57:31.604Z,96.53
2018-11-13T03:00:01.791Z,72.43
2018-11-13T03:02:31.095Z,97.47
2018-11-13T03:05:00.194Z,80.30
2018-11-13T03:07:31.536Z,42.77
2018-11-13T03:10:00.644Z,60.53
2018-11-13T03:12:29.711Z,53.10
2018-11-13T03:14:59.817Z,70.67
2018-11-13T03:17:31.266Z,59.47
2018-11-13T03:20:00.300Z,58.67
2018-11-13T03:22:30.204Z,50.13
2018-11-13T03:24:59.384Z,46.07
2018-11-13T03:27:28.409Z,41.83
2018-11-13T03:30:09.056Z,47.43
2018-11-13T03:32:38.490Z,49.27
2018-11-13T03:49:58.066Z,56.07
2018-11-13T03:57:13.407Z,39.50
2018-11-13T03:59:43.282Z,39.33
2018-11-13T04:02:13.660Z,36.00
2018-11-13T04:04:43.434Z,37.73
2018-11-13T04:07:15.350Z,45.27
2018-11-13T04:12:49.107Z,39.23
2018-11-13T04:15:20.504Z,36.90
2018-11-13T04:18:00.696Z,41.53
2018-11-13T04:20:45.213Z,37.43
2018-11-13T04:23:37.293Z,35.77
2018-11-13T04:26:12.195Z,36.37
2018-11-13T04:37:37.435Z,32.97
2018-11-13T04:40:24.246Z,22.60
2018-11-13T04:42:55.826Z,23.53
2018-11-13T04:45:30.407Z,32.53
2018-11-13T04:48:08.430Z,28.50
2018-11-13T04:50:44.346Z,20.80
2018-11-13T04:53:23.165Z,31.80
2018-11-13T04:55:58.000Z,25.30
2018-11-13T04:58:40.369Z,17.50
2018-11-13T05:01:28.786Z,20.40
2018-11-13T05:06:40.856Z,22.73
2018-11-13T05:09:13.289Z,16.83
2018-11-13T05:11:45.819Z,14.13
2018-11-13T05:14:15.418Z,20.83
2018-11-13T05:16:44.674Z,32.30
2018-11-13T05:22:07.539Z,18.90
2018-11-13T05:24:37.019Z,28.70
2018-11-13T05:27:07.129Z,28.37
2018-11-13T05:29:36.396Z,24.60
2018-11-13T05:32:08.740Z,29.40
2018-11-13T05:34:41.495Z,22.00
2018-11-13T05:37:11.495Z,33.77
2018-11-13T05:39:42.617Z,26.47
2018-11-13T05:42:13.458Z,19.80
2018-11-13T05:44:42.866Z,15.50
2018-11-13T05:47:12.389Z,13.20
2018-11-13T05:49:41.509Z,16.63
2018-11-13T05:52:10.742Z,14.17
2018-11-13T05:54:42.300Z,14.63
2018-11-13T05:57:11.785Z,18.10
2018-11-13T05:59:45.186Z,14.17
2018-11-13T06:02:14.279Z,14.93
2018-11-13T06:04:43.352Z,14.67
2018-11-13T06:07:13.909Z,17.60
2018-11-13T06:09:45.564Z,11.33
2018-11-13T06:12:15.574Z,14.20
2018-11-13T06:14:44.746Z,14.40
2018-11-13T06:17:14.930Z,12.60
2018-11-13T06:19:45.399Z,14.03
2018-11-13T06:22:16.382Z,15.27
2018-11-13T06:24:45.625Z,16.63
2018-11-13T06:27:15.810Z,13.50
2018-11-13T06:29:45.876Z,17.80
2018-11-13T06:32:15.320Z,20.77
2018-11-13T06:34:45.998Z,23.30
2018-11-13T06:37:15.206Z,18.33
2018-11-13T06:39:47.033Z,15.10
2018-11-13T06:42:23.338Z,17.27
2018-11-13T06:44:52.506Z,20.40
2018-11-13T06:47:21.673Z,18.13
2018-11-13T06:49:52.230Z,22.47
2018-11-13T06:52:23.120Z,21.47
2018-11-13T06:55:07.081Z,22.40
2018-11-13T06:57:36.685Z,22.57
2018-11-13T07:00:07.223Z,19.80
2018-11-13T07:02:45.428Z,17.63
2018-11-13T07:05:15.774Z,22.37
2018-11-13T07:07:45.338Z,14.43
2018-11-13T07:10:15.764Z,18.77
2018-11-13T07:12:46.909Z,14.13
2018-11-13T07:15:19.048Z,11.60
2018-11-13T07:17:51.272Z,15.37
2018-11-13T07:20:21.694Z,11.27
2018-11-13T07:22:50.804Z,8.97
2018-11-13T07:25:20.812Z,8.97
2018-11-13T07:29:59.214Z,12.23
2018-11-13T07:32:28.768Z,9.37
2018-11-13T07:34:57.952Z,10.47
2018-11-13T07:37:27.048Z,8.70
2018-11-13T07:39:57.284Z,9.93
2018-11-13T07:42:27.124Z,11.13
2018-11-13T07:44:56.473Z,13.37
2018-11-13T07:47:26.002Z,10.90
2018-11-13T07:49:56.575Z,9.30
2018-11-13T07:52:25.774Z,11.77
2018-11-13T07:55:00.763Z,9.70
2018-11-13T07:57:31.050Z,9.70
2018-11-13T08:00:01.489Z,12.30
2018-11-13T08:04:42.985Z,12.30
2018-11-13T08:07:44.704Z,11.03
2018-11-13T08:10:25.455Z,8.37
2018-11-13T08:13:10.616Z,9.57
2018-11-13T08:19:32.199Z,11.03
2018-11-13T08:22:17.149Z,12.40
2018-11-13T08:24:59.740Z,12.70
2018-11-13T08:27:47.451Z,10.37
2018-11-13T08:30:39.278Z,9.33
2018-11-13T08:34:09.904Z,12.10
2018-11-13T08:36:49.887Z,10.80
2018-11-13T08:39:38.759Z,12.97
2018-11-13T08:42:20.375Z,8.03
2018-11-13T08:44:50.581Z,8.73
2018-11-13T08:47:20.255Z,10.80
2018-11-13T08:50:13.669Z,9.93
2018-11-13T08:53:02.094Z,7.47
2018-11-13T08:55:32.648Z,9.63
2018-11-13T08:58:14.494Z,11.07
2018-11-13T09:05:24.930Z,7.50
2018-11-13T09:08:02.474Z,12.67
2018-11-13T09:10:57.716Z,8.17
2018-11-13T09:13:49.824Z,12.53
2018-11-13T09:16:34.154Z,9.23
2018-11-13T09:19:34.377Z,13.60
2018-11-13T09:22:29.549Z,11.63
2018-11-13T09:25:04.469Z,10.07
2018-11-13T09:27:52.353Z,9.70
2018-11-13T09:49:08.493Z,8.03
2018-11-13T09:51:40.953Z,7.77
2018-11-13T09:54:25.374Z,8.87
2018-11-13T09:56:58.415Z,12.70
2018-11-13T09:59:51.085Z,8.03
2018-11-13T10:07:50.455Z,12.90
2018-11-13T10:10:22.835Z,5.77
2018-11-13T10:13:14.501Z,9.13
2018-11-13T10:15:48.748Z,7.77
2018-11-13T10:18:21.590Z,7.53
2018-11-13T10:20:50.729Z,8.63
2018-11-13T10:23:26.924Z,8.30
2018-11-13T10:25:57.192Z,7.20
2018-11-13T10:28:27.362Z,13.13
2018-11-13T10:30:56.773Z,6.50
2018-11-13T10:33:26.560Z,9.23
2018-11-13T10:35:58.748Z,9.07
2018-11-13T10:38:32.940Z,5.63
2018-11-13T10:41:12.219Z,7.33
2018-11-13T10:43:42.329Z,11.80
2018-11-13T10:46:12.577Z,16.60
2018-11-13T10:48:49.324Z,9.67
2018-11-13T10:51:21.329Z,7.17
2018-11-13T10:53:52.649Z,7.57
2018-11-13T10:56:23.292Z,5.23
2018-11-13T10:58:55.275Z,8.67
2018-11-13T11:03:23.613Z,4.07
2018-11-13T11:40:51.168Z,8.97
2018-11-13T11:43:23.493Z,23.50
2018-11-13T11:45:52.782Z,13.90
2018-11-13T11:48:23.057Z,11.60
2018-11-13T11:50:52.380Z,17.73
2018-11-13T11:53:22.163Z,18.27
2018-11-13T11:55:51.322Z,14.23
2018-11-13T11:58:22.696Z,13.60
2018-11-13T12:00:53.183Z,11.90
2018-11-13T12:03:22.939Z,12.30
2018-11-13T12:05:52.030Z,11.00
2018-11-13T12:08:21.137Z,14.90
2018-11-13T12:10:50.199Z,8.67
2018-11-13T12:13:30.610Z,17.40
2018-11-13T12:16:00.662Z,10.07
2018-11-13T12:18:31.713Z,7.57
2018-11-13T12:21:01.415Z,7.30
2018-11-13T12:23:30.574Z,10.70
2018-11-13T12:26:01.103Z,11.03
2018-11-13T12:28:30.523Z,8.13
2018-11-13T12:31:01.552Z,6.87
2018-11-13T12:33:35.284Z,9.17
2018-11-13T12:36:06.638Z,11.17
2018-11-13T12:38:36.101Z,11.37
2018-11-13T12:41:05.492Z,11.73
2018-11-13T12:43:34.656Z,7.73
2018-11-13T12:46:05.004Z,9.83
2018-11-13T12:48:35.530Z,15.90
2018-11-13T12:51:07.304Z,10.40
2018-11-13T12:53:37.154Z,4.23
2018-11-13T12:56:06.830Z,5.77
2018-11-13T12:58:35.992Z,4.13
2018-11-13T13:01:13.118Z,5.90
2018-11-13T13:03:42.208Z,6.03
2018-11-13T13:06:11.277Z,9.50
2018-11-13T13:08:40.382Z,12.03
2018-11-13T13:11:10.313Z,11.13
2018-11-13T13:13:43.377Z,17.43
2018-11-13T13:16:30.061Z,9.90
2018-11-13T13:18:59.841Z,9.43
2018-11-13T13:21:29.792Z,8.53
2018-11-13T13:24:01.298Z,6.43
2018-11-13T13:26:31.538Z,10.50
2018-11-13T13:29:02.988Z,8.03
2018-11-13T13:31:33.405Z,9.37
2018-11-13T13:36:43.521Z,6.07
2018-11-13T13:39:14.932Z,15.43
2018-11-13T13:41:46.178Z,4.53
2018-11-13T13:44:16.500Z,6.17
2018-11-13T13:46:54.376Z,7.93
2018-11-13T13:49:24.502Z,11.90
2018-11-13T13:51:56.482Z,16.83
2018-11-13T13:54:26.768Z,17.00
2018-11-13T13:56:57.463Z,10.47
2018-11-13T13:59:28.626Z,19.90
2018-11-13T14:02:01.463Z,17.53
2018-11-13T14:04:47.172Z,19.90
2018-11-13T14:35:27.352Z,9.17
2018-11-13T14:40:59.974Z,21.77
2018-11-13T14:43:37.618Z,5.53
2018-11-13T14:51:05.128Z,9.10
2018-11-13T15:08:54.722Z,7.50
2018-11-13T15:12:02.363Z,8.23
2018-11-13T15:54:53.712Z,9.53
2018-11-13T15:57:25.361Z,9.73
2018-11-13T16:21:44.434Z,8.47
2018-11-13T16:24:21.372Z,7.13
2018-11-13T16:31:00.856Z,4.93
2018-11-13T16:33:30.817Z,8.97
2018-11-13T16:36:03.363Z,6.97
2018-11-13T16:57:10.423Z,11.43
2018-11-13T16:59:49.731Z,8.77
2018-11-13T17:05:36.504Z,7.73
2018-11-13T17:35:37.805Z,16.53
2018-11-13T17:38:44.407Z,13.20
2018-11-13T19:17:46.026Z,16.60
2018-11-13T19:20:19.549Z,13.90
2018-11-13T19:22:54.978Z,15.33
2018-11-13T19:25:28.572Z,16.50
2018-11-13T19:27:59.450Z,15.07
2018-11-13T19:30:36.082Z,18.97
2018-11-13T19:34:52.419Z,13.33
2018-11-13T20:08:11.333Z,17.50
2018-11-13T20:10:47.934Z,29.40
2018-11-13T20:13:19.264Z,23.33
2018-11-13T20:15:50.652Z,21.57
2018-11-13T20:18:22.778Z,22.13
2018-11-13T20:21:01.343Z,18.53
2018-11-13T20:23:31.900Z,15.57
2018-11-13T20:31:34.803Z,22.23
2018-11-13T20:34:10.836Z,17.87
2018-11-13T20:36:40.802Z,15.53
2018-11-13T20:39:14.513Z,21.83
2018-11-13T20:41:54.472Z,26.00
2018-11-13T20:44:28.222Z,15.67
2018-11-13T20:46:58.323Z,14.97
2018-11-13T20:49:29.523Z,17.30
2018-11-13T20:52:06.649Z,19.57
2018-11-13T20:54:37.667Z,22.33
2018-11-13T20:57:15.269Z,17.77
2018-11-13T20:59:45.369Z,18.67
2018-11-13T21:02:15.356Z,20.70
2018-11-13T21:04:45.228Z,30.00
2018-11-13T21:07:23.651Z,22.07
2018-11-13T21:09:55.047Z,23.63
2018-11-13T21:12:29.344Z,30.87
2018-11-13T21:15:01.121Z,34.00
2018-11-13T21:17:34.490Z,26.63
2018-11-13T21:20:06.063Z,31.90
2018-11-13T21:22:37.726Z,29.37
2018-11-13T21:25:09.592Z,31.97
2018-11-13T21:27:41.689Z,24.13
2018-11-13T21:30:15.100Z,21.70
2018-11-13T21:32:46.522Z,20.70
2018-11-13T21:35:18.291Z,20.00
2018-11-13T21:37:52.536Z,25.20
2018-11-13T21:40:25.360Z,23.70
2018-11-13T21:42:55.887Z,28.67
2018-11-13T21:45:26.891Z,43.13
2018-11-13T21:47:58.153Z,24.87
2018-11-13T21:50:29.600Z,30.27
2018-11-13T21:53:00.087Z,27.57
2018-11-13T21:55:31.894Z,26.27
2018-11-13T21:58:01.917Z,23.90
2018-11-13T22:00:35.505Z,19.97
2018-11-13T22:03:07.571Z,27.40
2018-11-13T22:05:38.356Z,19.83
2018-11-13T22:08:09.472Z,25.73
2018-11-13T22:10:40.682Z,19.27
2018-11-13T22:13:17.186Z,17.67
2018-11-13T22:15:46.842Z,22.57
2018-11-13T22:18:17.051Z,23.83
2018-11-13T22:20:46.711Z,12.77
2018-11-13T22:23:16.784Z,22.10
2018-11-13T22:25:47.697Z,16.73
2018-11-13T22:28:18.062Z,13.67
2018-11-13T22:30:48.031Z,18.70
2018-11-13T22:33:18.018Z,16.53
2018-11-13T22:35:47.285Z,16.40
2018-11-13T22:38:20.740Z,23.43
2018-11-13T22:40:50.403Z,20.17
2018-11-13T22:43:21.372Z,15.40
2018-11-13T22:45:50.897Z,20.23
2018-11-13T22:48:22.374Z,21.40
2018-11-13T22:50:51.744Z,23.33
2018-11-13T22:53:21.025Z,16.60
2018-11-13T22:55:50.395Z,20.67
2018-11-13T22:58:19.739Z,18.37
2018-11-13T23:00:49.542Z,22.47
2018-11-13T23:03:26.261Z,15.83
2018-11-13T23:05:55.646Z,15.83
2018-11-13T23:08:24.901Z,18.47
2018-11-13T23:10:54.394Z,14.77
2018-11-13T23:13:23.740Z,16.07
2018-11-13T23:15:53.124Z,15.13
2018-11-13T23:18:22.570Z,11.83
2018-11-13T23:21:00.759Z,11.80
2018-11-13T23:23:30.153Z,18.20
2018-11-13T23:25:59.464Z,18.60
2018-11-13T23:28:28.665Z,19.63
2018-11-13T23:31:04.957Z,17.77
2018-11-13T23:33:34.364Z,15.40
2018-11-13T23:36:10.574Z,19.00
2018-11-13T23:38:40.189Z,20.97
2018-11-13T23:41:09.519Z,24.43
2018-11-13T23:43:38.984Z,20.10
2018-11-13T23:46:20.411Z,20.53
2018-11-13T23:48:52.873Z,16.63
2018-11-13T23:51:22.229Z,24.27
2018-11-13T23:53:51.682Z,17.20
2018-11-13T23:56:21.020Z,17.33
2018-11-13T23:58:50.319Z,14.23
